Time;durP1;ratioP1;P1;durP2;ratioP2;P2;SDS_P1;SDS_P2;PMS_P1;PMS_P2;Temp;Humidity;BMP_temperature;BMP_pressure;BME280_temperature;BME280_humidity;BME280_pressure;Samples;Min_cycle;Max_cycle;Signal;HPM_P1;HPM_P2
2023/05/13 00:01:03;;;;;;;11.45;10.95;;;;;;;;;;5031576;28;20013;-69
2023/05/13 00:03:28;;;;;;;12.80;12.10;;;;;;;;;;5029576;28;20485;-70
2023/05/13 00:05:54;;;;;;;11.60;11.02;;;;;;;;;;5030998;28;20381;-69
2023/05/13 00:08:19;;;;;;;11.88;11.27;;;;;;;;;;5032679;28;20017;-69
2023/05/13 00:10:44;;;;;;;11.55;10.95;;;;;;;;;;5030623;28;20041;-68
2023/05/13 00:13:10;;;;;;;11.60;11.00;;;;;;;;;;5031090;28;20444;-69
2023/05/13 00:15:35;;;;;;;12.27;11.68;;;;;;;;;;5033105;28;20028;-69
2023/05/13 00:18:01;;;;;;;11.93;11.32;;;;;;;;;;5032595;28;20032;-69
2023/05/13 00:20:26;;;;;;;12.25;11.65;;;;;;;;;;5030601;28;20397;-70
2023/05/13 00:22:51;;;;;;;11.55;10.95;;;;;;;;;;5030184;28;20025;-69
2023/05/13 00:25:17;;;;;;;11.80;11.20;;;;;;;;;;5031577;28;20079;-69
2023/05/13 00:27:42;;;;;;;11.85;11.25;;;;;;;;;;5032181;28;20025;-69
2023/05/13 00:30:09;;;;;;;11.77;11.18;;;;;;;;;;5043324;28;20026;-69
2023/05/13 00:32:34;;;;;;;12.18;11.57;;;;;;;;;;5031060;28;20022;-69
2023/05/13 00:34:59;;;;;;;12.00;11.40;;;;;;;;;;5035992;28;20029;-70
2023/05/13 00:37:24;;;;;;;12.00;11.40;;;;;;;;;;5026156;28;20037;-69
2023/05/13 00:39:50;;;;;;;11.52;10.93;;;;;;;;;;5034025;28;20079;-70
2023/05/13 00:42:15;;;;;;;12.20;11.60;;;;;;;;;;5027173;28;20025;-70
2023/05/13 00:44:41;;;;;;;11.40;10.90;;;;;;;;;;5030536;28;20488;-70
2023/05/13 00:47:06;;;;;;;12.27;11.68;;;;;;;;;;5035892;28;20108;-70
2023/05/13 00:49:32;;;;;;;11.85;11.25;;;;;;;;;;5030830;28;20048;-70
2023/05/13 00:51:58;;;;;;;11.73;11.13;;;;;;;;;;5030289;28;20045;-70
2023/05/13 00:54:24;;;;;;;11.57;11.00;;;;;;;;;;5030127;28;20014;-70
2023/05/13 00:56:53;;;;;;;11.50;11.00;;;;;;;;;;5030867;28;20025;-70
2023/05/13 00:59:18;;;;;;;11.63;11.02;;;;;;;;;;5045555;28;20017;-70
2023/05/13 01:01:49;;;;;;;11.90;11.30;;;;;;;;;;5032299;28;20119;-70
2023/05/13 01:04:32;;;;;;;12.77;12.07;;;;;;;;;;5029506;28;20025;-69
2023/05/13 01:07:16;;;;;;;12.02;11.43;;;;;;;;;;5035466;28;20020;-70
2023/05/13 01:09:44;;;;;;;11.73;11.18;;;;;;;;;;5027792;28;20021;-70
2023/05/13 01:12:11;;;;;;;11.90;11.30;;;;;;;;;;5029226;28;20441;-69
2023/05/13 01:14:41;;;;;;;11.90;11.30;;;;;;;;;;5029766;28;20101;-70
2023/05/13 01:17:22;;;;;;;11.82;11.23;;;;;;;;;;5045710;28;20021;-69
2023/05/13 01:19:55;;;;;;;12.25;11.65;;;;;;;;;;5030873;28;20501;-69
2023/05/13 01:22:20;;;;;;;12.55;11.85;;;;;;;;;;5031699;28;21209;-69
2023/05/13 01:24:45;;;;;;;12.00;11.40;;;;;;;;;;5029093;28;20017;-70
2023/05/13 01:27:11;;;;;;;11.70;11.10;;;;;;;;;;5036074;28;20021;-68
2023/05/13 01:29:36;;;;;;;11.77;11.20;;;;;;;;;;5048574;28;20086;-68
2023/05/13 01:32:02;;;;;;;12.18;11.57;;;;;;;;;;5035176;28;20021;-70
2023/05/13 01:34:28;;;;;;;12.02;11.43;;;;;;;;;;5041635;28;20067;-70
2023/05/13 01:36:53;;;;;;;11.55;11.05;;;;;;;;;;5034758;28;20389;-70
2023/05/13 01:39:19;;;;;;;12.80;12.10;;;;;;;;;;5033999;28;20148;-70
2023/05/13 01:41:44;;;;;;;12.05;11.45;;;;;;;;;;5039526;28;20025;-70
2023/05/13 01:44:10;;;;;;;12.25;11.63;;;;;;;;;;5019444;28;20052;-70
2023/05/13 01:46:37;;;;;;;12.68;11.98;;;;;;;;;;5029727;28;20493;-70
2023/05/13 01:49:02;;;;;;;12.30;11.70;;;;;;;;;;5032665;28;20665;-69
2023/05/13 01:51:27;;;;;;;12.73;12.02;;;;;;;;;;5033920;28;20036;-70
2023/05/13 01:53:53;;;;;;;11.75;11.15;;;;;;;;;;5032758;28;20079;-70
2023/05/13 01:56:18;;;;;;;11.85;11.25;;;;;;;;;;5038665;28;20017;-70
2023/05/13 01:58:43;;;;;;;11.60;11.00;;;;;;;;;;5032624;28;20053;-70
2023/05/13 02:01:08;;;;;;;11.70;11.10;;;;;;;;;;5032328;28;20028;-70
2023/05/13 02:03:34;;;;;;;11.25;10.75;;;;;;;;;;5033702;28;20020;-70
2023/05/13 02:05:59;;;;;;;11.80;11.20;;;;;;;;;;5045452;28;20077;-70
2023/05/13 02:08:26;;;;;;;12.07;11.48;;;;;;;;;;5052107;28;20029;-70
2023/05/13 02:10:58;;;;;;;11.90;11.30;;;;;;;;;;5037166;28;20021;-70
2023/05/13 02:13:24;;;;;;;11.90;11.30;;;;;;;;;;5033816;28;20021;-69
2023/05/13 02:15:49;;;;;;;12.00;11.40;;;;;;;;;;5042915;28;20017;-69
2023/05/13 02:18:14;;;;;;;12.10;11.50;;;;;;;;;;5033546;28;20021;-70
2023/05/13 02:20:40;;;;;;;11.65;11.05;;;;;;;;;;5023637;28;20017;-69
2023/05/13 02:23:06;;;;;;;12.85;12.15;;;;;;;;;;5036394;28;20029;-69
2023/05/13 02:25:31;;;;;;;12.00;11.40;;;;;;;;;;5032869;28;20056;-69
2023/05/13 02:27:56;;;;;;;12.20;11.60;;;;;;;;;;5024488;28;20017;-70
2023/05/13 02:30:25;;;;;;;12.13;11.52;;;;;;;;;;5032583;28;20013;-69
2023/05/13 02:32:51;;;;;;;10.68;10.18;;;;;;;;;;5024276;28;20410;-69
2023/05/13 02:35:16;;;;;;;11.75;11.15;;;;;;;;;;5032761;28;20096;-70
2023/05/13 02:37:42;;;;;;;11.75;11.15;;;;;;;;;;5033761;28;20021;-69
2023/05/13 02:40:08;;;;;;;12.48;11.77;;;;;;;;;;5039842;28;20021;-70
2023/05/13 02:42:33;;;;;;;11.93;11.32;;;;;;;;;;5031096;28;20033;-71
2023/05/13 02:44:58;;;;;;;11.80;11.20;;;;;;;;;;5030542;28;20041;-70
2023/05/13 02:47:24;;;;;;;11.90;11.30;;;;;;;;;;5032838;28;20076;-70
2023/05/13 02:49:49;;;;;;;12.85;12.15;;;;;;;;;;5040496;28;20033;-69
2023/05/13 02:52:15;;;;;;;12.55;11.88;;;;;;;;;;5027148;28;20025;-69
2023/05/13 02:54:40;;;;;;;12.20;11.60;;;;;;;;;;5028739;28;20025;-69
2023/05/13 02:57:05;;;;;;;11.93;11.32;;;;;;;;;;5032209;28;20029;-69
2023/05/13 02:59:30;;;;;;;12.10;11.50;;;;;;;;;;5031504;28;20034;-69
2023/05/13 03:01:57;;;;;;;11.80;11.20;;;;;;;;;;5032013;28;20120;-69
2023/05/13 03:04:23;;;;;;;11.88;11.27;;;;;;;;;;5031723;28;20044;-69
2023/05/13 03:06:49;;;;;;;12.40;11.73;;;;;;;;;;5031270;28;20095;-69
2023/05/13 03:09:15;;;;;;;12.02;11.43;;;;;;;;;;5033145;28;20041;-69
2023/05/13 03:11:41;;;;;;;11.60;11.00;;;;;;;;;;5043471;28;20025;-70
2023/05/13 03:14:07;;;;;;;12.05;11.45;;;;;;;;;;5030844;28;20109;-70
2023/05/13 03:16:32;;;;;;;13.20;12.43;;;;;;;;;;5029751;28;20096;-70
2023/05/13 03:18:57;;;;;;;11.80;11.20;;;;;;;;;;5035188;28;20041;-70
2023/05/13 03:21:23;;;;;;;12.18;11.57;;;;;;;;;;5033471;28;20083;-70
2023/05/13 03:23:48;;;;;;;11.15;10.65;;;;;;;;;;5036079;28;20381;-70
2023/05/13 03:26:13;;;;;;;11.25;10.73;;;;;;;;;;5027857;28;20037;-69
2023/05/13 03:28:38;;;;;;;11.70;11.10;;;;;;;;;;5039690;28;20025;-69
2023/05/13 03:31:04;;;;;;;11.25;10.75;;;;;;;;;;5033749;28;20010;-70
2023/05/13 03:33:29;;;;;;;11.80;11.20;;;;;;;;;;5032029;28;20636;-70
2023/05/13 03:35:55;;;;;;;11.88;11.27;;;;;;;;;;5029821;28;20469;-69
2023/05/13 03:38:20;;;;;;;12.18;11.57;;;;;;;;;;5034894;28;20034;-69
2023/05/13 03:40:45;;;;;;;12.07;11.48;;;;;;;;;;5040436;28;20025;-70
2023/05/13 03:43:11;;;;;;;12.20;11.60;;;;;;;;;;5031045;28;20032;-70
2023/05/13 03:45:36;;;;;;;11.80;11.20;;;;;;;;;;5033458;28;20388;-70
2023/05/13 03:48:01;;;;;;;11.68;11.07;;;;;;;;;;5034978;28;20048;-70
2023/05/13 03:50:27;;;;;;;11.98;11.38;;;;;;;;;;5034274;28;20072;-71
2023/05/13 03:52:52;;;;;;;11.75;11.15;;;;;;;;;;5028987;28;20473;-70
2023/05/13 03:55:17;;;;;;;11.90;11.30;;;;;;;;;;5026358;28;20021;-70
2023/05/13 03:57:45;;;;;;;12.23;11.63;;;;;;;;;;5021453;28;20026;-70
2023/05/13 04:00:11;;;;;;;11.90;11.30;;;;;;;;;;5031703;28;20082;-70
2023/05/13 04:02:36;;;;;;;11.88;11.27;;;;;;;;;;5032503;28;20120;-70
2023/05/13 04:05:04;;;;;;;11.88;11.27;;;;;;;;;;5031136;28;20113;-70
2023/05/13 04:07:29;;;;;;;12.88;12.18;;;;;;;;;;5028448;28;20410;-70
2023/05/13 04:09:55;;;;;;;11.90;11.30;;;;;;;;;;5025563;28;20037;-70
2023/05/13 04:12:20;;;;;;;13.77;12.98;;;;;;;;;;5025745;28;20076;-70
2023/05/13 04:14:45;;;;;;;12.27;11.68;;;;;;;;;;5032311;28;20045;-70
2023/05/13 04:17:10;;;;;;;13.18;12.48;;;;;;;;;;5031761;28;20021;-70
2023/05/13 04:19:36;;;;;;;11.80;11.20;;;;;;;;;;5026935;28;20104;-70
2023/05/13 04:22:01;;;;;;;12.73;12.02;;;;;;;;;;5030707;28;20109;-70
2023/05/13 04:24:27;;;;;;;12.10;11.50;;;;;;;;;;5030165;28;20053;-70
2023/05/13 04:26:53;;;;;;;12.30;11.65;;;;;;;;;;5031147;28;20033;-70
2023/05/13 04:29:18;;;;;;;12.55;11.90;;;;;;;;;;5031942;28;20013;-70
2023/05/13 04:31:44;;;;;;;11.90;11.30;;;;;;;;;;5030401;28;20034;-70
2023/05/13 04:34:09;;;;;;;12.20;11.60;;;;;;;;;;5029457;28;20065;-69
2023/05/13 04:36:34;;;;;;;12.07;11.48;;;;;;;;;;5030429;28;20025;-70
2023/05/13 04:38:59;;;;;;;12.52;11.88;;;;;;;;;;5029913;28;20057;-70
2023/05/13 04:41:25;;;;;;;13.32;12.63;;;;;;;;;;5029764;28;20104;-70
2023/05/13 04:43:50;;;;;;;13.43;12.70;;;;;;;;;;5029836;28;20026;-70
2023/05/13 04:46:15;;;;;;;12.98;12.27;;;;;;;;;;5040432;28;20059;-70
2023/05/13 04:48:41;;;;;;;11.95;11.35;;;;;;;;;;5031030;28;20033;-69
2023/05/13 04:51:07;;;;;;;12.65;11.98;;;;;;;;;;5030331;28;20021;-70
2023/05/13 04:53:32;;;;;;;12.10;11.50;;;;;;;;;;5023975;28;20103;-69
2023/05/13 04:55:59;;;;;;;11.77;11.18;;;;;;;;;;5041433;28;20516;-70
2023/05/13 04:58:25;;;;;;;12.25;11.65;;;;;;;;;;5035431;28;20170;-70
2023/05/13 05:00:50;;;;;;;12.93;12.23;;;;;;;;;;5030911;28;20577;-70
2023/05/13 05:03:16;;;;;;;12.85;12.15;;;;;;;;;;5038680;28;20060;-69
2023/05/13 05:05:41;;;;;;;12.63;12.00;;;;;;;;;;5032864;28;20477;-69
2023/05/13 05:08:06;;;;;;;12.00;11.40;;;;;;;;;;5058809;28;20188;-69
2023/05/13 05:10:32;;;;;;;11.98;11.38;;;;;;;;;;5039052;28;20078;-70
2023/05/13 05:12:57;;;;;;;11.50;11.00;;;;;;;;;;5034157;28;20021;-70
2023/05/13 05:15:23;;;;;;;12.18;11.57;;;;;;;;;;5045999;28;20477;-69
2023/05/13 05:17:48;;;;;;;11.98;11.38;;;;;;;;;;5047048;28;20028;-70
2023/05/13 05:20:13;;;;;;;12.02;11.43;;;;;;;;;;5037606;28;20057;-70
2023/05/13 05:22:40;;;;;;;11.50;11.00;;;;;;;;;;5035046;28;20117;-70
2023/05/13 05:25:06;;;;;;;12.02;11.43;;;;;;;;;;5048679;28;20017;-70
2023/05/13 05:27:32;;;;;;;11.88;11.27;;;;;;;;;;5042292;28;20654;-70
2023/05/13 05:29:57;;;;;;;12.27;11.68;;;;;;;;;;5036829;28;20094;-70
2023/05/13 05:32:22;;;;;;;12.13;11.52;;;;;;;;;;5039135;28;20093;-69
2023/05/13 05:34:48;;;;;;;12.05;11.45;;;;;;;;;;5033524;28;20009;-69
2023/05/13 05:37:13;;;;;;;12.02;11.43;;;;;;;;;;5037670;28;20025;-69
2023/05/13 05:39:40;;;;;;;12.20;11.60;;;;;;;;;;5036497;28;20431;-69
2023/05/13 05:42:05;;;;;;;11.90;11.40;;;;;;;;;;5035801;28;20088;-69
2023/05/13 05:44:30;;;;;;;11.80;11.30;;;;;;;;;;5038819;28;20029;-69
2023/05/13 05:46:56;;;;;;;11.48;10.98;;;;;;;;;;5035463;28;20029;-70
2023/05/13 05:49:21;;;;;;;12.10;11.50;;;;;;;;;;5032429;28;20500;-70
2023/05/13 05:51:46;;;;;;;12.20;11.60;;;;;;;;;;5026920;28;20473;-70
2023/05/13 05:54:12;;;;;;;12.57;11.98;;;;;;;;;;5044527;28;20369;-70
2023/05/13 05:56:37;;;;;;;12.30;11.70;;;;;;;;;;5034036;28;20486;-70
2023/05/13 05:59:02;;;;;;;12.20;11.60;;;;;;;;;;5032658;28;20251;-71
2023/05/13 06:01:32;;;;;;;12.45;11.85;;;;;;;;;;5035081;28;20183;-71
2023/05/13 06:03:57;;;;;;;12.57;11.98;;;;;;;;;;5035663;28;20053;-63
2023/05/13 06:06:23;;;;;;;12.25;11.65;;;;;;;;;;5043758;28;20380;-63
2023/05/13 06:08:48;;;;;;;12.50;11.90;;;;;;;;;;5037649;28;20029;-64
2023/05/13 06:11:13;;;;;;;12.20;11.60;;;;;;;;;;5032224;28;20079;-63
2023/05/13 06:13:39;;;;;;;12.27;11.68;;;;;;;;;;5032494;28;20021;-63
2023/05/13 06:16:04;;;;;;;11.65;11.15;;;;;;;;;;5033327;28;20045;-63
2023/05/13 06:18:29;;;;;;;11.93;11.43;;;;;;;;;;5034315;28;20024;-62
2023/05/13 06:20:55;;;;;;;12.48;11.88;;;;;;;;;;5027059;28;20087;-63
2023/05/13 06:23:20;;;;;;;12.65;12.05;;;;;;;;;;5027581;28;20033;-62
2023/05/13 06:25:46;;;;;;;12.75;12.15;;;;;;;;;;5025481;28;20036;-63
2023/05/13 06:28:11;;;;;;;12.73;12.13;;;;;;;;;;5041881;28;20029;-62
2023/05/13 06:30:37;;;;;;;12.05;11.50;;;;;;;;;;5036720;28;20105;-62
2023/05/13 06:33:03;;;;;;;12.27;11.68;;;;;;;;;;5034110;28;20022;-62
2023/05/13 06:35:28;;;;;;;12.38;11.77;;;;;;;;;;5042441;28;20053;-63
2023/05/13 06:37:53;;;;;;;12.40;11.80;;;;;;;;;;5038543;28;20029;-66
2023/05/13 06:40:18;;;;;;;11.93;11.43;;;;;;;;;;5027216;28;20022;-67
2023/05/13 06:42:44;;;;;;;11.90;11.40;;;;;;;;;;5027165;28;20025;-66
2023/05/13 06:45:09;;;;;;;12.23;11.63;;;;;;;;;;5031767;28;20028;-65
2023/05/13 06:47:35;;;;;;;12.52;11.93;;;;;;;;;;5029785;28;20025;-65
2023/05/13 06:50:01;;;;;;;12.60;12.00;;;;;;;;;;5019638;28;20453;-65
2023/05/13 06:52:26;;;;;;;13.13;12.52;;;;;;;;;;5015998;28;20157;-66
2023/05/13 06:54:51;;;;;;;12.40;11.80;;;;;;;;;;5017067;28;20100;-67
2023/05/13 06:57:17;;;;;;;13.50;12.80;;;;;;;;;;5015943;28;20045;-66
2023/05/13 06:59:43;;;;;;;12.75;12.15;;;;;;;;;;5029626;28;21352;-66
2023/05/13 07:02:10;;;;;;;12.13;11.52;;;;;;;;;;5028023;28;20107;-66
2023/05/13 07:04:35;;;;;;;12.20;11.60;;;;;;;;;;5031354;28;20030;-67
2023/05/13 07:07:00;;;;;;;12.10;11.50;;;;;;;;;;5027403;28;20520;-67
2023/05/13 07:09:26;;;;;;;12.57;11.98;;;;;;;;;;5032046;28;20010;-66
2023/05/13 07:11:51;;;;;;;12.38;11.77;;;;;;;;;;5029741;28;20030;-67
2023/05/13 07:14:17;;;;;;;12.98;12.38;;;;;;;;;;5025226;28;20028;-66
2023/05/13 07:16:42;;;;;;;12.00;11.40;;;;;;;;;;5026206;28;20515;-67
2023/05/13 07:19:08;;;;;;;12.90;12.30;;;;;;;;;;5029579;28;20123;-65
2023/05/13 07:21:34;;;;;;;12.40;11.80;;;;;;;;;;5031900;28;20273;-66
2023/05/13 07:24:01;;;;;;;12.85;12.25;;;;;;;;;;5030801;28;20489;-66
2023/05/13 07:26:26;;;;;;;11.95;11.38;;;;;;;;;;5029139;28;20033;-66
2023/05/13 07:28:51;;;;;;;12.00;11.40;;;;;;;;;;5025782;28;20017;-66
2023/05/13 07:31:16;;;;;;;13.00;12.40;;;;;;;;;;5028007;28;20473;-67
2023/05/13 07:33:42;;;;;;;12.57;11.98;;;;;;;;;;5031494;28;20025;-67
2023/05/13 07:36:07;;;;;;;13.32;12.63;;;;;;;;;;5029566;28;20021;-67
2023/05/13 07:38:33;;;;;;;12.63;12.02;;;;;;;;;;5056461;28;20018;-67
2023/05/13 07:40:58;;;;;;;12.55;11.95;;;;;;;;;;5032146;28;20075;-66
2023/05/13 07:43:23;;;;;;;13.57;12.88;;;;;;;;;;5026665;28;20033;-66
2023/05/13 07:45:50;;;;;;;12.18;11.57;;;;;;;;;;5028984;28;20025;-66
2023/05/13 07:48:16;;;;;;;12.32;11.73;;;;;;;;;;5032245;28;20071;-66
2023/05/13 07:50:42;;;;;;;12.80;12.20;;;;;;;;;;5032109;28;20399;-66
2023/05/13 07:53:07;;;;;;;12.57;11.98;;;;;;;;;;5034790;28;20017;-67
2023/05/13 07:55:32;;;;;;;13.05;12.45;;;;;;;;;;5031908;28;20588;-67
2023/05/13 07:57:58;;;;;;;13.20;12.60;;;;;;;;;;5029416;28;24030;-66
2023/05/13 08:00:23;;;;;;;12.45;11.85;;;;;;;;;;5026332;28;20124;-67
2023/05/13 08:02:49;;;;;;;11.98;11.48;;;;;;;;;;5025222;28;20042;-66
2023/05/13 08:05:14;;;;;;;12.48;11.88;;;;;;;;;;5020852;28;20022;-66
2023/05/13 08:07:39;;;;;;;12.65;12.05;;;;;;;;;;5023633;28;20037;-67
2023/05/13 08:10:05;;;;;;;12.87;12.27;;;;;;;;;;5027137;28;20021;-68
2023/05/13 08:12:30;;;;;;;12.85;12.25;;;;;;;;;;5030791;28;20258;-63
2023/05/13 08:14:56;;;;;;;12.93;12.32;;;;;;;;;;5028393;28;20112;-71
2023/05/13 08:17:21;;;;;;;13.68;12.98;;;;;;;;;;5027284;28;20505;-66
2023/05/13 08:19:46;;;;;;;12.77;12.18;;;;;;;;;;5023836;28;20030;-65
2023/05/13 08:22:12;;;;;;;14.00;13.30;;;;;;;;;;5028630;28;20079;-67
2023/05/13 08:24:39;;;;;;;12.30;11.70;;;;;;;;;;5028741;28;20048;-65
2023/05/13 08:27:05;;;;;;;12.73;12.13;;;;;;;;;;5026854;28;20056;-65
2023/05/13 08:29:30;;;;;;;12.60;12.00;;;;;;;;;;5028492;28;20405;-65
2023/05/13 08:31:55;;;;;;;12.02;11.45;;;;;;;;;;5027516;28;20025;-65
2023/05/13 08:34:20;;;;;;;12.57;11.98;;;;;;;;;;5030230;28;20036;-65
2023/05/13 08:36:46;;;;;;;13.15;12.52;;;;;;;;;;5032907;28;20026;-64
2023/05/13 08:39:12;;;;;;;13.05;12.43;;;;;;;;;;5030904;28;20021;-64
2023/05/13 08:41:38;;;;;;;12.50;11.90;;;;;;;;;;5027406;28;20481;-65
2023/05/13 08:44:03;;;;;;;12.80;12.20;;;;;;;;;;5035895;28;20489;-65
2023/05/13 08:46:31;;;;;;;13.02;12.43;;;;;;;;;;5029168;28;20030;-65
2023/05/13 08:48:57;;;;;;;12.20;11.60;;;;;;;;;;5025616;28;20028;-65
2023/05/13 08:51:23;;;;;;;14.00;13.30;;;;;;;;;;5022156;28;20014;-65
2023/05/13 08:53:48;;;;;;;12.30;11.70;;;;;;;;;;5025638;28;20109;-64
2023/05/13 08:56:13;;;;;;;13.32;12.63;;;;;;;;;;5038542;28;20017;-64
2023/05/13 08:58:40;;;;;;;12.77;12.18;;;;;;;;;;5028984;28;20029;-64
2023/05/13 09:01:06;;;;;;;12.43;11.82;;;;;;;;;;5028841;28;20029;-63
2023/05/13 09:03:32;;;;;;;12.10;11.50;;;;;;;;;;5025485;28;20104;-63
2023/05/13 09:05:59;;;;;;;12.43;11.82;;;;;;;;;;5034037;28;20450;-63
2023/05/13 09:08:24;;;;;;;12.93;12.32;;;;;;;;;;5032686;28;20024;-64
2023/05/13 09:10:50;;;;;;;12.88;12.25;;;;;;;;;;5024710;28;20124;-61
2023/05/13 09:13:16;;;;;;;13.50;12.80;;;;;;;;;;5033146;28;20060;-64
2023/05/13 09:15:44;;;;;;;13.35;12.65;;;;;;;;;;5031317;28;20030;-62
2023/05/13 09:18:09;;;;;;;13.30;12.60;;;;;;;;;;5028747;28;20037;-63
2023/05/13 09:20:35;;;;;;;13.82;13.13;;;;;;;;;;5031256;28;20025;-64
2023/05/13 09:23:02;;;;;;;14.27;13.52;;;;;;;;;;5025394;28;20093;-62
2023/05/13 09:25:28;;;;;;;13.88;13.18;;;;;;;;;;5027603;28;20073;-64
2023/05/13 09:27:57;;;;;;;13.68;12.98;;;;;;;;;;5026911;28;20059;-60
2023/05/13 09:30:23;;;;;;;13.95;13.25;;;;;;;;;;5030249;28;20029;-65
2023/05/13 09:33:12;;;;;;;12.93;12.32;;;;;;;;;;5024355;28;20025;-65
2023/05/13 09:35:38;;;;;;;13.15;12.45;;;;;;;;;;5025688;28;20615;-64
2023/05/13 09:38:16;;;;;;;13.43;12.73;;;;;;;;;;5027506;28;20051;-64
2023/05/13 09:40:50;;;;;;;13.63;12.93;;;;;;;;;;5026812;28;20057;-62
2023/05/13 09:43:17;;;;;;;13.93;13.23;;;;;;;;;;5030235;28;20021;-65
2023/05/13 09:45:42;;;;;;;13.30;12.60;;;;;;;;;;5028421;28;20036;-64
2023/05/13 09:48:07;;;;;;;12.82;12.23;;;;;;;;;;5023451;28;20029;-63
2023/05/13 09:50:33;;;;;;;12.32;11.73;;;;;;;;;;5030991;28;20531;-69
2023/05/13 09:53:08;;;;;;;13.35;12.65;;;;;;;;;;5058154;28;20075;-67
2023/05/13 09:55:33;;;;;;;11.60;11.10;;;;;;;;;;5028057;28;20528;-68
2023/05/13 09:57:59;;;;;;;12.30;11.70;;;;;;;;;;5028607;28;20031;-68
2023/05/13 10:00:24;;;;;;;12.50;11.90;;;;;;;;;;5021929;28;20022;-68
2023/05/13 10:02:50;;;;;;;11.93;11.32;;;;;;;;;;5030791;28;20416;-68
2023/05/13 10:05:15;;;;;;;12.55;11.95;;;;;;;;;;5028063;28;20100;-68
2023/05/13 10:07:41;;;;;;;12.52;11.93;;;;;;;;;;5030491;28;20033;-68
2023/05/13 10:10:07;;;;;;;12.50;11.90;;;;;;;;;;5028102;28;20100;-68
2023/05/13 10:12:35;;;;;;;12.07;11.48;;;;;;;;;;5036505;28;20029;-68
2023/05/13 10:15:00;;;;;;;12.30;11.70;;;;;;;;;;5022694;28;20100;-68
2023/05/13 10:17:26;;;;;;;12.80;12.20;;;;;;;;;;5029898;28;20100;-68
2023/05/13 10:19:52;;;;;;;12.73;12.13;;;;;;;;;;5029001;28;20030;-67
2023/05/13 10:22:26;;;;;;;12.70;12.10;;;;;;;;;;5034033;28;20017;-68
2023/05/13 10:24:52;;;;;;;11.98;11.38;;;;;;;;;;5030506;28;20444;-68
2023/05/13 10:27:17;;;;;;;12.32;11.73;;;;;;;;;;5034621;28;20021;-68
2023/05/13 10:29:43;;;;;;;12.00;11.40;;;;;;;;;;5031535;28;20028;-68
2023/05/13 10:32:09;;;;;;;12.18;11.57;;;;;;;;;;5034277;28;20147;-69
2023/05/13 10:34:35;;;;;;;12.82;12.20;;;;;;;;;;5027314;28;20400;-69
2023/05/13 10:37:00;;;;;;;11.88;11.32;;;;;;;;;;5026707;28;20087;-69
2023/05/13 10:39:44;;;;;;;12.82;12.23;;;;;;;;;;5032895;28;20103;-68
2023/05/13 10:42:29;;;;;;;13.10;12.40;;;;;;;;;;5026855;28;20029;-68
2023/05/13 10:44:56;;;;;;;12.57;11.98;;;;;;;;;;5021344;28;20044;-68
2023/05/13 10:47:21;;;;;;;13.50;12.80;;;;;;;;;;5024038;28;20037;-68
2023/05/13 10:49:53;;;;;;;11.95;11.35;;;;;;;;;;5023918;28;20113;-68
2023/05/13 10:52:18;;;;;;;12.75;12.15;;;;;;;;;;5026858;28;20022;-68
2023/05/13 10:54:55;;;;;;;12.20;11.60;;;;;;;;;;5030679;28;20020;-68
2023/05/13 10:57:26;;;;;;;12.75;12.15;;;;;;;;;;5029939;28;20102;-68
2023/05/13 11:00:10;;;;;;;12.68;12.07;;;;;;;;;;5024916;28;20029;-68
2023/05/13 11:02:36;;;;;;;12.25;11.65;;;;;;;;;;5035832;28;20052;-68
2023/05/13 11:05:03;;;;;;;11.90;11.30;;;;;;;;;;5018001;28;20665;-68
2023/05/13 11:07:29;;;;;;;12.65;12.05;;;;;;;;;;5029627;28;20056;-68
2023/05/13 11:09:54;;;;;;;12.70;12.10;;;;;;;;;;5026983;28;20114;-67
2023/05/13 11:12:20;;;;;;;12.10;11.50;;;;;;;;;;5025790;28;20364;-68
2023/05/13 11:14:45;;;;;;;12.50;11.90;;;;;;;;;;5056809;28;20392;-68
2023/05/13 11:17:11;;;;;;;12.48;11.88;;;;;;;;;;5044350;28;20537;-68
2023/05/13 11:19:46;;;;;;;12.32;11.73;;;;;;;;;;5034557;28;20029;-68
2023/05/13 11:22:22;;;;;;;12.32;11.73;;;;;;;;;;5026968;28;20144;-68
2023/05/13 11:25:04;;;;;;;11.73;11.18;;;;;;;;;;5026189;28;20143;-68
2023/05/13 11:27:32;;;;;;;13.13;12.45;;;;;;;;;;5021898;28;20025;-69
2023/05/13 11:29:57;;;;;;;13.13;12.43;;;;;;;;;;5028144;28;20009;-69
2023/05/13 11:32:41;;;;;;;13.00;12.40;;;;;;;;;;5027479;28;20474;-68
2023/05/13 11:35:06;;;;;;;12.57;11.98;;;;;;;;;;5054657;28;20489;-68
2023/05/13 11:37:32;;;;;;;12.20;11.60;;;;;;;;;;5023638;28;20045;-67
2023/05/13 11:39:58;;;;;;;12.80;12.20;;;;;;;;;;5030703;28;20037;-67
2023/05/13 11:42:23;;;;;;;12.27;11.68;;;;;;;;;;5028162;28;20026;-67
2023/05/13 11:44:50;;;;;;;12.27;11.68;;;;;;;;;;5032244;28;20075;-67
2023/05/13 11:47:24;;;;;;;12.70;12.10;;;;;;;;;;5022567;28;20564;-68
2023/05/13 11:49:50;;;;;;;12.00;11.40;;;;;;;;;;5035335;28;20080;-68
2023/05/13 11:52:17;;;;;;;13.45;12.75;;;;;;;;;;5032043;28;20029;-69
2023/05/13 11:54:42;;;;;;;11.85;11.35;;;;;;;;;;5027149;28;20025;-67
2023/05/13 11:57:17;;;;;;;12.15;11.55;;;;;;;;;;5028408;28;20033;-68
2023/05/13 12:00:11;;;;;;;12.75;12.15;;;;;;;;;;5034395;28;20064;-68
2023/05/13 12:02:39;;;;;;;12.38;11.77;;;;;;;;;;5033618;28;20061;-67
2023/05/13 12:05:05;;;;;;;12.20;11.60;;;;;;;;;;5031033;28;20040;-68
2023/05/13 12:07:31;;;;;;;12.60;12.00;;;;;;;;;;5030734;28;20041;-67
2023/05/13 12:09:57;;;;;;;12.70;12.10;;;;;;;;;;5025794;28;20028;-68
2023/05/13 12:12:23;;;;;;;12.43;11.82;;;;;;;;;;5026878;28;20071;-68
2023/05/13 12:14:49;;;;;;;12.35;11.75;;;;;;;;;;5034967;28;20454;-68
2023/05/13 12:17:15;;;;;;;11.93;11.43;;;;;;;;;;5033064;28;20491;-69
2023/05/13 12:19:58;;;;;;;11.95;11.38;;;;;;;;;;5027501;28;20478;-69
2023/05/13 12:22:23;;;;;;;12.95;12.35;;;;;;;;;;5026407;28;20114;-69
2023/05/13 12:24:49;;;;;;;12.80;12.20;;;;;;;;;;5018219;28;20184;-69
2023/05/13 12:27:14;;;;;;;12.45;11.85;;;;;;;;;;5028058;28;20113;-68
2023/05/13 12:29:40;;;;;;;12.55;11.95;;;;;;;;;;5027366;28;20029;-69
2023/05/13 12:32:06;;;;;;;12.60;12.00;;;;;;;;;;5030770;28;20022;-69
2023/05/13 12:34:32;;;;;;;12.73;12.13;;;;;;;;;;5032577;28;20025;-69
2023/05/13 12:37:08;;;;;;;12.45;11.85;;;;;;;;;;5027870;28;20028;-69
2023/05/13 12:39:33;;;;;;;12.68;12.07;;;;;;;;;;5043430;28;20120;-69
2023/05/13 12:41:58;;;;;;;12.02;11.43;;;;;;;;;;5029287;28;20108;-68
2023/05/13 12:44:25;;;;;;;12.68;12.07;;;;;;;;;;5059375;28;20022;-68
2023/05/13 12:46:51;;;;;;;12.18;11.57;;;;;;;;;;5025475;28;20044;-69
2023/05/13 12:49:17;;;;;;;12.65;12.05;;;;;;;;;;5019422;28;20109;-68
2023/05/13 12:51:42;;;;;;;13.75;13.05;;;;;;;;;;5031551;28;20030;-68
2023/05/13 12:54:09;;;;;;;12.63;12.02;;;;;;;;;;5022428;28;20024;-69
2023/05/13 12:56:34;;;;;;;13.20;12.52;;;;;;;;;;5027130;28;20535;-68
2023/05/13 12:59:00;;;;;;;12.60;12.00;;;;;;;;;;5054838;28;20060;-68
2023/05/13 13:01:25;;;;;;;12.95;12.35;;;;;;;;;;5025353;28;20140;-69
2023/05/13 13:03:51;;;;;;;12.63;12.02;;;;;;;;;;5026798;28;20098;-69
2023/05/13 13:06:16;;;;;;;12.32;11.73;;;;;;;;;;5023779;28;20084;-69
2023/05/13 13:08:42;;;;;;;11.65;11.15;;;;;;;;;;5025643;28;20041;-69
2023/05/13 13:11:07;;;;;;;12.50;11.90;;;;;;;;;;5020818;28;20030;-68
2023/05/13 13:13:33;;;;;;;12.45;11.85;;;;;;;;;;5030128;28;20026;-69
2023/05/13 13:15:58;;;;;;;13.35;12.68;;;;;;;;;;5031124;28;20056;-68
2023/05/13 13:18:24;;;;;;;12.88;12.27;;;;;;;;;;5016961;28;20022;-69
2023/05/13 13:20:50;;;;;;;12.32;11.73;;;;;;;;;;5024842;28;20036;-68
2023/05/13 13:23:16;;;;;;;12.77;12.18;;;;;;;;;;5022982;28;20061;-69
2023/05/13 13:25:42;;;;;;;12.05;11.48;;;;;;;;;;5039436;28;20068;-68
2023/05/13 13:28:07;;;;;;;12.05;11.48;;;;;;;;;;5034810;28;20033;-68
2023/05/13 13:30:32;;;;;;;11.77;11.27;;;;;;;;;;5032352;28;20031;-68
2023/05/13 13:32:58;;;;;;;12.23;11.63;;;;;;;;;;5030148;28;20021;-68
2023/05/13 13:35:23;;;;;;;12.27;11.68;;;;;;;;;;5033660;28;20022;-69
2023/05/13 13:37:48;;;;;;;12.27;11.68;;;;;;;;;;5062311;28;20489;-68
2023/05/13 13:40:13;;;;;;;12.15;11.57;;;;;;;;;;5029110;28;20029;-68
2023/05/13 13:42:39;;;;;;;12.05;11.48;;;;;;;;;;5034530;28;20022;-68
2023/05/13 13:45:04;;;;;;;12.50;11.90;;;;;;;;;;5031259;28;20346;-68
2023/05/13 13:47:30;;;;;;;12.27;11.68;;;;;;;;;;5031218;28;20033;-69
2023/05/13 13:49:55;;;;;;;12.45;11.85;;;;;;;;;;5037523;28;20112;-69
2023/05/13 13:52:21;;;;;;;11.73;11.23;;;;;;;;;;5029485;28;20017;-69
2023/05/13 13:54:47;;;;;;;12.43;11.82;;;;;;;;;;5024723;28;20013;-69
2023/05/13 13:57:13;;;;;;;11.98;11.43;;;;;;;;;;5031255;28;20032;-69
2023/05/13 13:59:38;;;;;;;12.15;11.55;;;;;;;;;;5031374;28;21059;-69
2023/05/13 14:02:04;;;;;;;12.55;11.95;;;;;;;;;;5032009;28;20527;-69
2023/05/13 14:04:29;;;;;;;13.23;12.52;;;;;;;;;;5029529;28;20022;-68
2023/05/13 14:06:55;;;;;;;12.18;11.57;;;;;;;;;;5027123;28;20026;-68
2023/05/13 14:09:20;;;;;;;12.65;12.05;;;;;;;;;;5033305;28;20199;-68
2023/05/13 14:11:46;;;;;;;12.57;11.98;;;;;;;;;;5026028;28;20505;-68